createdAt,value
2022-11-29T00:02:30.070Z,101544.81
2022-11-29T00:07:37.084Z,101541.25
2022-11-29T00:12:43.278Z,101531.78
2022-11-29T00:17:48.501Z,101528.81
2022-11-29T00:22:53.398Z,101526.41
2022-11-29T00:28:23.050Z,101530.56
2022-11-29T00:33:30.802Z,101527.56
2022-11-29T00:38:45.025Z,101534.69
2022-11-29T00:43:50.185Z,101527.56
2022-11-29T00:48:55.993Z,101527.56
2022-11-29T00:54:03.273Z,101520.00
2022-11-29T00:59:05.464Z,101528.75
2022-11-29T01:04:09.691Z,101537.50
2022-11-29T01:09:19.443Z,101528.25
2022-11-29T01:14:28.157Z,101529.91
2022-11-29T01:19:31.495Z,101539.97
2022-11-29T01:24:35.957Z,101532.03
2022-11-29T01:29:43.511Z,101540.47
2022-11-29T01:34:46.982Z,101529.56
2022-11-29T01:39:58.814Z,101529.22
2022-11-29T01:45:25.281Z,101530.31
2022-11-29T01:50:29.624Z,101524.28
2022-11-29T01:55:43.461Z,101530.22
2022-11-29T02:05:16.507Z,101523.84
2022-11-29T02:10:47.894Z,101529.53
2022-11-29T02:16:23.892Z,101539.84
2022-11-29T02:22:04.195Z,101540.91
2022-11-29T02:28:05.524Z,101542.00
2022-11-29T02:33:37.779Z,101545.22
2022-11-29T02:39:22.095Z,101542.97
2022-11-29T02:44:47.956Z,101537.19
2022-11-29T02:50:15.331Z,101543.38
2022-11-29T02:55:44.393Z,101547.16
2022-11-29T03:01:29.224Z,101546.81
2022-11-29T03:07:05.284Z,101545.66
2022-11-29T03:12:47.336Z,101543.16
2022-11-29T03:18:33.110Z,101556.19
2022-11-29T03:24:06.076Z,101547.94
2022-11-29T03:29:26.117Z,101536.69
2022-11-29T03:35:19.537Z,101534.66
2022-11-29T03:40:44.769Z,101526.16
2022-11-29T03:46:05.950Z,101520.38
2022-11-29T03:51:56.067Z,101509.72
2022-11-29T03:56:59.795Z,101519.22
2022-11-29T04:02:52.104Z,101517.91
2022-11-29T04:08:22.349Z,101520.97
2022-11-29T04:14:43.938Z,101518.00
2022-11-29T04:20:45.440Z,101526.41
2022-11-29T04:26:09.870Z,101535.75
2022-11-29T04:31:37.528Z,101532.31
2022-11-29T04:37:51.864Z,101534.31
2022-11-29T04:43:53.404Z,101537.38
2022-11-29T04:49:24.583Z,101548.63
2022-11-29T04:55:01.828Z,101536.06
2022-11-29T05:08:37.090Z,101506.41
2022-11-29T05:13:56.488Z,101521.31
2022-11-29T05:19:19.353Z,101525.47
2022-11-29T05:24:58.913Z,101536.34
2022-11-29T05:30:09.396Z,101552.44
2022-11-29T05:35:47.846Z,101547.69
2022-11-29T05:41:17.507Z,101533.28
2022-11-29T05:46:33.060Z,101527.63
2022-11-29T05:51:48.914Z,101534.00
2022-11-29T05:57:34.277Z,101541.25
2022-11-29T06:03:18.472Z,101536.28
2022-11-29T06:08:46.433Z,101532.63
2022-11-29T06:14:18.093Z,101540.19
2022-11-29T06:19:59.656Z,101542.81
2022-11-29T06:25:27.583Z,101551.56
2022-11-29T06:31:04.068Z,101549.91
2022-11-29T06:36:45.127Z,101570.00
2022-11-29T06:41:50.349Z,101579.81
2022-11-29T06:47:06.411Z,101597.31
2022-11-29T06:52:17.291Z,101601.69
2022-11-29T06:58:06.393Z,101610.91
2022-11-29T07:03:28.076Z,101609.25
2022-11-29T07:08:33.626Z,101599.66
2022-11-29T07:13:40.009Z,101601.81
2022-11-29T07:19:09.080Z,101610.19
2022-11-29T07:24:55.973Z,101620.00
2022-11-29T07:30:11.938Z,101618.72
2022-11-29T07:35:30.873Z,101623.91
2022-11-29T07:40:52.099Z,101613.03
2022-11-29T07:45:58.601Z,101615.50
2022-11-29T07:51:02.346Z,101614.81
2022-11-29T07:56:07.696Z,101605.34
2022-11-29T08:01:13.111Z,101610.06
2022-11-29T08:06:16.952Z,101622.34
2022-11-29T08:11:31.002Z,101619.50
2022-11-29T08:16:32.933Z,101613.84
2022-11-29T08:21:36.177Z,101617.13
2022-11-29T08:26:42.850Z,101612.41
2022-11-29T08:31:45.658Z,101616.44
2022-11-29T08:36:51.882Z,101602.72
2022-11-29T08:41:59.275Z,101606.16
2022-11-29T08:47:21.251Z,101613.97
2022-11-29T08:52:43.340Z,101607.44
2022-11-29T08:57:45.554Z,101604.69
2022-11-29T09:02:52.574Z,101595.81
2022-11-29T09:07:55.770Z,101603.97
2022-11-29T09:12:57.601Z,101599.44
2022-11-29T09:18:04.254Z,101597.41
2022-11-29T09:23:06.814Z,101614.78
2022-11-29T09:28:22.364Z,101622.94
2022-11-29T09:33:35.556Z,101620.53
2022-11-29T09:38:38.445Z,101625.78
2022-11-29T09:44:03.234Z,101631.19
2022-11-29T09:49:24.120Z,101620.13
2022-11-29T09:55:00.517Z,101622.56
2022-11-29T10:00:07.738Z,101619.94
2022-11-29T10:05:51.490Z,101615.50
2022-11-29T10:11:10.106Z,101596.09
2022-11-29T10:16:21.389Z,101600.47
2022-11-29T10:21:30.019Z,101588.56
2022-11-29T10:26:35.619Z,101593.81
2022-11-29T10:31:44.131Z,101582.44
2022-11-29T10:36:52.967Z,101570.94
2022-11-29T10:47:20.350Z,101568.34
2022-11-29T10:52:23.547Z,101564.84
2022-11-29T10:57:25.749Z,101569.31
2022-11-29T11:02:28.329Z,101549.50
2022-11-29T11:07:36.258Z,101559.88
2022-11-29T11:13:00.360Z,101546.97
2022-11-29T11:18:11.254Z,101528.69
2022-11-29T11:23:42.723Z,101520.56
2022-11-29T11:29:05.316Z,101531.78
2022-11-29T11:34:34.239Z,101528.84
2022-11-29T11:39:36.416Z,101523.41
2022-11-29T11:45:01.209Z,101527.47
2022-11-29T11:50:09.434Z,101533.63
2022-11-29T11:55:29.953Z,101528.69
2022-11-29T12:01:14.028Z,101533.94
2022-11-29T12:06:38.260Z,101527.81
2022-11-29T12:12:27.390Z,101528.03
2022-11-29T12:17:47.436Z,101525.16
2022-11-29T12:23:19.637Z,101517.50
2022-11-29T12:28:34.222Z,101528.31
2022-11-29T12:33:46.998Z,101522.88
2022-11-29T12:39:20.363Z,101514.69
2022-11-29T12:44:31.123Z,101510.38
2022-11-29T12:49:51.676Z,101515.50
2022-11-29T12:55:25.090Z,101501.47
2022-11-29T13:00:33.970Z,101487.84
2022-11-29T13:06:08.220Z,101484.78
2022-11-29T13:11:37.328Z,101481.09
2022-11-29T13:16:56.303Z,101478.53
2022-11-29T13:22:10.393Z,101465.31
2022-11-29T13:27:23.329Z,101456.53
2022-11-29T13:32:57.249Z,101456.84
2022-11-29T13:38:34.872Z,101453.66
2022-11-29T13:44:03.306Z,101449.16
2022-11-29T13:49:06.129Z,101442.63
2022-11-29T13:54:30.886Z,101427.88
2022-11-29T13:59:36.069Z,101426.38
2022-11-29T14:04:46.254Z,101412.13
2022-11-29T14:10:03.934Z,101397.31
2022-11-29T14:15:22.607Z,101407.03
2022-11-29T14:20:28.584Z,101404.78
2022-11-29T14:26:05.551Z,101393.06
2022-11-29T14:31:12.491Z,101397.06
2022-11-29T14:36:26.350Z,101389.78
2022-11-29T14:41:54.224Z,101389.69
2022-11-29T14:47:13.458Z,101392.25
2022-11-29T14:52:15.324Z,101394.06
2022-11-29T14:57:45.155Z,101382.97
2022-11-29T15:03:19.026Z,101386.22
2022-11-29T15:08:26.896Z,101389.75
2022-11-29T15:13:37.431Z,101392.13
2022-11-29T15:18:42.300Z,101393.41
2022-11-29T15:23:44.682Z,101395.19
2022-11-29T15:28:46.913Z,101388.72
2022-11-29T15:33:54.846Z,101401.81
2022-11-29T15:38:59.343Z,101403.88
2022-11-29T15:44:04.674Z,101411.16
2022-11-29T15:49:18.183Z,101428.13
2022-11-29T15:54:49.576Z,101429.06
2022-11-29T15:59:58.241Z,101423.41
2022-11-29T16:05:30.279Z,101428.28
2022-11-29T16:10:41.821Z,101420.16
2022-11-29T16:15:46.150Z,101423.94
2022-11-29T16:21:04.343Z,101423.25
2022-11-29T16:26:27.403Z,101429.69
2022-11-29T16:31:38.795Z,101435.56
2022-11-29T16:36:40.792Z,101448.25
2022-11-29T16:42:03.791Z,101449.44
2022-11-29T16:47:18.154Z,101454.13
2022-11-29T16:52:30.119Z,101453.09
2022-11-29T16:57:45.367Z,101446.53
2022-11-29T17:02:47.566Z,101458.41
2022-11-29T17:07:53.757Z,101446.66
2022-11-29T17:12:55.857Z,101440.34
2022-11-29T17:17:59.188Z,101447.50
2022-11-29T17:23:01.701Z,101443.97
2022-11-29T17:28:06.593Z,101447.56
2022-11-29T17:33:09.693Z,101456.91
2022-11-29T17:38:12.239Z,101456.38
2022-11-29T17:43:17.895Z,101450.09
2022-11-29T17:48:19.872Z,101450.31
2022-11-29T17:53:22.004Z,101455.81
2022-11-29T17:58:25.357Z,101452.00
2022-11-29T18:03:28.803Z,101456.38
2022-11-29T18:08:31.795Z,101461.59
2022-11-29T18:13:37.042Z,101455.84
2022-11-29T18:18:39.680Z,101467.94
2022-11-29T18:23:42.950Z,101462.44
2022-11-29T18:28:48.118Z,101465.19
2022-11-29T18:33:53.996Z,101470.66
2022-11-29T18:39:05.933Z,101473.97
2022-11-29T18:44:11.271Z,101467.38
2022-11-29T18:49:19.067Z,101473.41
2022-11-29T18:54:26.421Z,101466.28
2022-11-29T18:59:32.185Z,101471.50
2022-11-29T19:04:41.791Z,101473.16
2022-11-29T19:09:43.863Z,101477.81
2022-11-29T19:14:49.850Z,101484.94
2022-11-29T19:19:54.362Z,101473.16
2022-11-29T19:24:56.776Z,101472.88
2022-11-29T19:29:59.638Z,101471.50
2022-11-29T19:35:05.284Z,101473.94
2022-11-29T19:40:16.324Z,101471.19
2022-11-29T19:45:18.511Z,101465.69
2022-11-29T19:50:20.550Z,101475.00
2022-11-29T19:55:22.976Z,101481.78
2022-11-29T20:00:24.961Z,101473.00
2022-11-29T20:05:27.293Z,101470.50
2022-11-29T20:10:29.501Z,101462.84
2022-11-29T20:15:31.593Z,101463.38
2022-11-29T20:20:34.483Z,101462.25
2022-11-29T20:25:40.491Z,101461.16
2022-11-29T20:30:46.243Z,101457.28
2022-11-29T20:36:09.681Z,101475.88
2022-11-29T20:41:23.661Z,101483.44
2022-11-29T20:46:26.162Z,101484.22
2022-11-29T20:52:05.459Z,101481.16
2022-11-29T20:57:09.046Z,101479.47
2022-11-29T21:02:11.106Z,101479.44
2022-11-29T21:07:13.090Z,101472.56
2022-11-29T21:12:15.732Z,101483.22
2022-11-29T21:17:19.614Z,101491.38
2022-11-29T21:22:52.894Z,101500.03
2022-11-29T21:27:55.376Z,101496.59
2022-11-29T21:32:57.570Z,101504.59
2022-11-29T21:38:04.074Z,101504.69
2022-11-29T21:43:20.729Z,101509.72
2022-11-29T21:48:38.576Z,101514.50
2022-11-29T21:53:50.804Z,101514.84
2022-11-29T21:58:56.821Z,101526.09
2022-11-29T22:03:58.864Z,101510.91
2022-11-29T22:09:02.932Z,101503.09
2022-11-29T22:14:14.316Z,101499.28
2022-11-29T22:19:19.726Z,101506.31
2022-11-29T22:24:24.277Z,101503.47
2022-11-29T22:29:26.318Z,101498.84
2022-11-29T22:34:30.308Z,101501.66
2022-11-29T22:39:32.347Z,101511.25
2022-11-29T22:44:34.401Z,101507.59
2022-11-29T22:49:40.207Z,101511.31
2022-11-29T22:54:42.587Z,101519.50
2022-11-29T22:59:48.438Z,101537.41
2022-11-29T23:04:54.474Z,101520.63
2022-11-29T23:09:56.598Z,101525.84
2022-11-29T23:14:58.838Z,101530.38
2022-11-29T23:20:00.925Z,101515.44
2022-11-29T23:25:07.275Z,101513.69
2022-11-29T23:30:14.560Z,101510.38
2022-11-29T23:35:16.480Z,101510.69
2022-11-29T23:40:18.869Z,101501.59
2022-11-29T23:45:30.150Z,101495.91
2022-11-29T23:50:32.301Z,101500.44
2022-11-29T23:55:34.218Z,101500.78
